Flight Track Log - Related Links

Times and Time Zones

All times are in EDT time to prevent confusion due to time zone crossing. See the N76AD flight status page for this flight to view local times or setup timezone preferences in your user account.

Time Position Orientation Groundspeed Altitude Reporting Facility
EDT Latitude Longitude Course Direction KTS MPH feet Rate Location/Type
Fri 05:29:04 PM 40.7667 -73.3833 27° Northeast 80 92 2,600  Level New York TRACON
Fri 05:31:00 PM 40.8130 -73.3463 31° Northeast  Level FlightAware Approximate
Fri 05:32:04 PM 40.8333 -73.3500 31° Northeast 77 89 4,600  Level New York TRACON
Fri 05:33:00 PM 40.8680 -73.3047 27° Northeast  Level FlightAware Approximate
Fri 05:34:00 PM 40.8930 -73.2880 27° Northeast  Level FlightAware Approximate
Fri 05:34:04 PM 40.8667 -73.3333 21° North 88 101 5,700  Level New York TRACON
Fri 05:35:04 PM 40.8833 -73.3167 37° Northeast 85 98 6,200 500 Climbing New York TRACON
Fri 05:36:04 PM 40.9000 -73.3000 37° Northeast 81 93 6,700 400 Climbing New York TRACON
Fri 05:37:04 PM 40.9167 -73.2833 37° Northeast 90 104 7,000 100 Climbing New York TRACON
Fri 05:39:04 PM 40.9667 -73.2667 14° North 104 120 7,000  Level New York TRACON
Fri 05:41:04 PM 41.0167 -73.2333 27° Northeast 90 104 7,000  Level New York TRACON
Fri 05:43:04 PM 41.0500 -73.2000 37° Northeast 91 105 7,000 25 Level New York TRACON
Fri 05:45:04 PM 41.1000 -73.1667 27° Northeast 100 115 7,100  Climbing New York TRACON
Fri 05:47:04 PM 41.1500 -73.1500 14° North 101 116 7,000 -41 Descending New York TRACON
Fri 05:47:32 PM 41.1683 -73.1681 323° Northwest 113 130 7,000 68 Level Boston Center
Fri 05:48:32 PM 41.1956 -73.1767 347° North 113 130 7,100  Climbing Boston Center
Fri 05:49:32 PM 41.2186 -73.1631 24° Northeast 101 116 7,000 -50 Descending Boston Center
Fri 05:50:32 PM 41.2456 -73.1606 North 95 109 7,000  Level Boston Center
Fri 05:51:32 PM 41.2747 -73.1775 336° Northwest 95 109 7,000  Level Boston Center
Fri 05:52:32 PM 41.2997 -73.1889 341° North 100 115 7,000  Level Boston Center
Fri 05:53:32 PM 41.3308 -73.1919 356° North 109 125 7,000  Level Boston Center
Fri 05:54:32 PM 41.3642 -73.2061 342° North 109 125 7,000  Level Boston Center
Fri 05:55:32 PM 41.3892 -73.2119 350° North 104 120 7,000 -45 Level Boston Center
Fri 05:56:44 PM 41.4222 -73.2236 345° North 104 120 6,900  Descending Boston Center
Fri 05:57:44 PM 41.4514 -73.2489 327° Northwest 109 125 7,000 50 Climbing Boston Center
Fri 05:58:44 PM 41.4764 -73.2575 346° North 104 120 7,000  Level Boston Center
Fri 05:59:44 PM 41.5094 -73.2633 352° North 104 120 7,000 50 Level Boston Center
Fri 06:00:44 PM 41.5303 -73.2719 343° North 104 120 7,100 50 Climbing Boston Center
Fri 06:01:44 PM 41.5656 -73.2864 343° North 104 120 7,100  Level Boston Center
Fri 06:03:08 PM 41.5969 -73.3033 338° Northwest 109 125 7,100 -42 Level Boston Center
Fri 06:04:08 PM 41.6281 -73.3150 344° North 104 120 7,000  Descending Boston Center
Fri 06:05:08 PM 41.6614 -73.3181 356° North 104 120 7,100  Climbing Boston Center
Fri 06:06:08 PM 41.6883 -73.3325 338° Northwest 110 127 7,000  Descending Boston Center
Fri 06:07:20 PM 41.7153 -73.3439 342° North 104 120 7,100  Climbing Boston Center
Fri 06:08:20 PM 41.7506 -73.3667 334° Northwest 109 125 7,000  Descending Boston Center
Fri 06:09:20 PM 41.7817 -73.3839 338° Northwest 114 131 7,100  Climbing Boston Center
Fri 06:10:20 PM 41.8086 -73.3925 347° North 114 131 7,000 -45 Descending Boston Center
Fri 06:11:32 PM 41.8419 -73.4069 342° North 109 125 7,000  Level Boston Center
Fri 06:12:32 PM 41.8794 -73.4186 347° North 109 125 7,000 50 Level Boston Center
Fri 06:13:32 PM 41.9083 -73.4275 347° North 109 125 7,100 54 Climbing Boston Center
Fri 06:14:24 PM 41.9311 -73.4392 339° North 113 130 7,100 -68 Level Boston Center
Fri 06:15:00 PM 41.9519 -73.4450 348° North 117 135 7,000 -88 Descending Boston Center
Fri 06:15:32 PM 41.9686 -73.4536 339° North 109 125 7,000  Level Boston Center
Fri 06:16:01 PM 41.9769 -73.4567 345° North 113 130 7,000  Level Boston Center
Fri 06:16:32 PM 41.9997 -73.4625 349° North 109 125 7,000 100 Level Boston Center
Fri 06:17:01 PM 42.0144 -73.4572 15° North 109 125 7,100 100 Climbing Boston Center
Fri 06:17:32 PM 42.0289 -73.4658 336° Northwest 103 119 7,100 -98 Level Boston Center
Fri 06:18:02 PM 42.0456 -73.4633 North 111 128 7,000 -100 Descending Boston Center
Fri 06:18:32 PM 42.0583 -73.4581 17° North 103 119 7,000  Level Boston Center
Fri 06:19:03 PM 42.0747 -73.4667 339° North 113 130 7,000 100 Level Boston Center
Fri 06:19:32 PM 42.0872 -73.4808 320° Northwest 103 119 7,100 100 Climbing Boston Center
Fri 06:20:03 PM 42.1036 -73.4922 333° Northwest 124 143 7,100  Level Boston Center
Fri 06:20:32 PM 42.1161 -73.5036 326° Northwest 108 124 7,100 -90 Level Boston Center
Fri 06:21:10 PM 42.1347 -73.5181 330° Northwest 119 137 7,000 -100 Descending Boston Center
Fri 06:21:32 PM 42.1431 -73.5264 323° Northwest 119 137 7,000  Level Boston Center
Fri 06:22:11 PM 42.1639 -73.5353 342° North 114 131 7,000  Level Boston Center
Fri 06:22:32 PM 42.1678 -73.5408 313° West 119 137 7,000 -300 Level Boston Center
Fri 06:23:11 PM 42.1928 -73.5553 337° Northwest 113 130 6,700 -400 Descending Boston Center
Fri 06:23:32 PM 42.2011 -73.5611 333° Northwest 119 137 6,600 -197 Descending Boston Center
Fri 06:24:12 PM 42.2178 -73.5642 352° North 103 119 6,500 -300 Descending Boston Center
Fri 06:24:32 PM 42.2281 -73.5700 337° Northwest 113 130 6,300 -375 Descending Boston Center
Fri 06:25:32 PM 42.2550 -73.5817 342° North 113 130 6,000 -297 Descending Boston Center
Fri 06:26:13 PM 42.2736 -73.5906 341° North 104 120 5,800 -300 Descending Boston Center
Fri 06:26:32 PM 42.2819 -73.5961 334° Northwest 108 124 5,700 -448 Descending Boston Center
Fri 06:27:20 PM 42.3028 -73.6050 342° North 99 114 5,300 -440 Descending Boston Center
Fri 06:28:21 PM 42.3317 -73.6169 343° North 106 122 4,900 -281 Descending Boston Center
Fri 06:29:28 PM 42.3608 -73.6175 359° North 102 117 4,700 -34 Descending Boston Center
Fri 06:31:17 PM 42.4172 -73.6269 353° North 111 128 4,800 -36 Climbing Boston Center
Fri 06:32:17 PM 42.4419 -73.6469 329° Northwest 113 130 4,600  Descending Boston Center
Fri 06:33:18 PM 42.4667 -73.6728 322° Northwest 107 123 4,800 49 Climbing Boston Center
Fri 06:34:19 PM 42.5000 -73.6792 352° North 121 139 4,700 -47 Descending Boston Center
Fri 06:35:26 PM 42.5311 -73.6853 352° North 106 122 4,700  Level Boston Center
Fri 06:36:32 PM 42.5625 -73.6861 359° North 98 113 4,700  Level Boston Center
Fri 06:37:33 PM 42.5956 -73.6894 356° North 110 127 4,700  Level Boston Center
Fri 06:39:00 PM 42.6368 -73.7067 343° North  Level FlightAware Approximate
Fri 06:39:34 PM 42.6561 -73.6936 343° North 113 130 4,700  Level Boston Center
Fri 06:40:35 PM 42.6872 -73.6969 355° North 112 129 4,700 -246 Level Boston Center
Fri 06:41:36 PM 42.7164 -73.7006 355° North 99 114 4,200 -417 Descending Boston Center
Fri 06:42:30 PM 42.7414 -73.7067 350° North 101 116 3,900 -261 Descending Boston Center
Fri 06:43:31 PM 42.7686 -73.7072 359° North 101 116 3,700 -281 Descending Boston Center
Fri 06:44:38 PM 42.8017 -73.7106 356° North 101 116 3,300 -283 Descending Boston Center
Fri 06:45:38 PM 42.8267 -73.7111 359° North 98 113 3,100 -149 Descending Boston Center
Fri 06:46:39 PM 42.8581 -73.7147 355° North 108 124 3,000 -47 Descending Boston Center
Fri 06:47:46 PM 42.8933 -73.7183 356° North 108 124 3,000  Level Boston Center
Fri 06:48:40 PM 42.9183 -73.7217 354° North 101 116 3,000 -55 Level Boston Center
Fri 06:49:35 PM 42.9306 -73.7444 306° West 107 123 2,900 -109 Descending Boston Center

Login

Don't have an account? Register now (free) for customized features, flight alerts, and more!